sensor_id;sensor_type;location;lat;lon;timestamp;temperature;humidity
52435;DHT22;38354;52.892;6.148;2023-09-30T04:01:32;12.40;99.90
52435;DHT22;38354;52.892;6.148;2023-09-30T04:03:58;12.40;99.90
52435;DHT22;38354;52.892;6.148;2023-09-30T04:06:24;12.30;99.90
52435;DHT22;38354;52.892;6.148;2023-09-30T04:08:49;12.40;99.90
52435;DHT22;38354;52.892;6.148;2023-09-30T04:11:15;12.30;99.90
52435;DHT22;38354;52.892;6.148;2023-09-30T04:13:44;12.30;99.90
52435;DHT22;38354;52.892;6.148;2023-09-30T04:16:10;12.40;99.90
52435;DHT22;38354;52.892;6.148;2023-09-30T04:18:35;12.30;99.90
52435;DHT22;38354;52.892;6.148;2023-09-30T04:21:01;12.30;99.90
52435;DHT22;38354;52.892;6.148;2023-09-30T04:23:27;12.30;99.90
52435;DHT22;38354;52.892;6.148;2023-09-30T04:25:52;12.30;99.90
52435;DHT22;38354;52.892;6.148;2023-09-30T04:28:18;12.30;99.90
52435;DHT22;38354;52.892;6.148;2023-09-30T04:30:49;12.30;99.90
52435;DHT22;38354;52.892;6.148;2023-09-30T04:33:15;12.30;99.90
52435;DHT22;38354;52.892;6.148;2023-09-30T04:35:43;12.30;99.90
52435;DHT22;38354;52.892;6.148;2023-09-30T04:38:09;12.30;99.90
52435;DHT22;38354;52.892;6.148;2023-09-30T04:40:34;12.30;99.90
52435;DHT22;38354;52.892;6.148;2023-09-30T04:43:00;12.30;99.90
52435;DHT22;38354;52.892;6.148;2023-09-30T04:45:25;12.20;99.90
52435;DHT22;38354;52.892;6.148;2023-09-30T04:47:51;12.30;99.90
52435;DHT22;38354;52.892;6.148;2023-09-30T04:50:17;12.30;99.90
52435;DHT22;38354;52.892;6.148;2023-09-30T04:52:43;12.20;99.90
52435;DHT22;38354;52.892;6.148;2023-09-30T04:55:10;12.20;99.90
52435;DHT22;38354;52.892;6.148;2023-09-30T04:57:37;12.20;99.90
52435;DHT22;38354;52.892;6.148;2023-09-30T05:00:03;12.20;99.90
52435;DHT22;38354;52.892;6.148;2023-09-30T05:02:36;12.20;99.90
52435;DHT22;38354;52.892;6.148;2023-09-30T05:05:01;12.20;99.90
52435;DHT22;38354;52.892;6.148;2023-09-30T05:07:29;12.20;99.90
52435;DHT22;38354;52.892;6.148;2023-09-30T05:09:55;12.20;99.90
52435;DHT22;38354;52.892;6.148;2023-09-30T05:12:20;12.20;99.90
52435;DHT22;38354;52.892;6.148;2023-09-30T05:14:46;12.20;99.90
52435;DHT22;38354;52.892;6.148;2023-09-30T05:17:11;12.20;99.90
52435;DHT22;38354;52.892;6.148;2023-09-30T05:19:37;12.20;99.90
52435;DHT22;38354;52.892;6.148;2023-09-30T05:22:03;12.10;99.90
52435;DHT22;38354;52.892;6.148;2023-09-30T05:24:29;12.10;99.90
52435;DHT22;38354;52.892;6.148;2023-09-30T05:26:54;12.10;99.90
52435;DHT22;38354;52.892;6.148;2023-09-30T05:29:20;12.10;99.90
52435;DHT22;38354;52.892;6.148;2023-09-30T05:31:46;12.10;99.90
52435;DHT22;38354;52.892;6.148;2023-09-30T05:34:11;12.10;99.90
52435;DHT22;38354;52.892;6.148;2023-09-30T05:36:37;12.00;99.90
52435;DHT22;38354;52.892;6.148;2023-09-30T05:39:02;12.10;99.90
52435;DHT22;38354;52.892;6.148;2023-09-30T05:41:28;12.10;99.90
52435;DHT22;38354;52.892;6.148;2023-09-30T05:43:55;12.00;99.90
52435;DHT22;38354;52.892;6.148;2023-09-30T05:46:20;12.00;99.90
52435;DHT22;38354;52.892;6.148;2023-09-30T05:48:46;12.00;99.90
52435;DHT22;38354;52.892;6.148;2023-09-30T05:51:12;11.90;99.90
52435;DHT22;38354;52.892;6.148;2023-09-30T05:53:40;11.90;99.90
52435;DHT22;38354;52.892;6.148;2023-09-30T05:56:07;11.90;99.90
52435;DHT22;38354;52.892;6.148;2023-09-30T05:58:32;11.90;99.90
52435;DHT22;38354;52.892;6.148;2023-09-30T06:00:58;11.90;99.90
52435;DHT22;38354;52.892;6.148;2023-09-30T06:03:26;11.90;99.90
52435;DHT22;38354;52.892;6.148;2023-09-30T06:05:54;11.90;99.90
52435;DHT22;38354;52.892;6.148;2023-09-30T06:08:21;11.90;99.90
52435;DHT22;38354;52.892;6.148;2023-09-30T06:10:46;11.90;99.90
52435;DHT22;38354;52.892;6.148;2023-09-30T06:13:12;11.90;99.90
52435;DHT22;38354;52.892;6.148;2023-09-30T06:15:39;11.90;99.90
52435;DHT22;38354;52.892;6.148;2023-09-30T06:18:05;11.90;99.90
52435;DHT22;38354;52.892;6.148;2023-09-30T06:20:31;11.90;99.90
52435;DHT22;38354;52.892;6.148;2023-09-30T06:22:57;11.90;99.90
52435;DHT22;38354;52.892;6.148;2023-09-30T06:25:22;11.90;99.90
52435;DHT22;38354;52.892;6.148;2023-09-30T06:27:49;11.90;99.90
52435;DHT22;38354;52.892;6.148;2023-09-30T06:30:15;11.90;99.90
52435;DHT22;38354;52.892;6.148;2023-09-30T06:32:41;12.00;99.90
52435;DHT22;38354;52.892;6.148;2023-09-30T06:35:07;12.00;99.90
52435;DHT22;38354;52.892;6.148;2023-09-30T06:37:38;12.00;99.90
52435;DHT22;38354;52.892;6.148;2023-09-30T06:40:08;12.10;99.90
52435;DHT22;38354;52.892;6.148;2023-09-30T06:42:34;12.10;99.90
52435;DHT22;38354;52.892;6.148;2023-09-30T06:45:03;12.20;99.90
52435;DHT22;38354;52.892;6.148;2023-09-30T06:47:34;12.20;99.90
52435;DHT22;38354;52.892;6.148;2023-09-30T06:50:00;12.20;99.90
52435;DHT22;38354;52.892;6.148;2023-09-30T06:52:36;12.20;99.90
52435;DHT22;38354;52.892;6.148;2023-09-30T06:55:03;12.30;99.90
52435;DHT22;38354;52.892;6.148;2023-09-30T06:57:35;12.30;99.90
52435;DHT22;38354;52.892;6.148;2023-09-30T07:00:01;12.30;99.90
52435;DHT22;38354;52.892;6.148;2023-09-30T07:02:27;12.40;99.90
52435;DHT22;38354;52.892;6.148;2023-09-30T07:04:53;12.40;99.90
52435;DHT22;38354;52.892;6.148;2023-09-30T07:07:18;12.50;99.90
52435;DHT22;38354;52.892;6.148;2023-09-30T07:09:44;12.50;99.90
52435;DHT22;38354;52.892;6.148;2023-09-30T07:12:10;12.60;99.90
52435;DHT22;38354;52.892;6.148;2023-09-30T07:14:35;12.60;99.90
52435;DHT22;38354;52.892;6.148;2023-09-30T07:17:01;12.70;99.90
52435;DHT22;38354;52.892;6.148;2023-09-30T07:19:26;12.70;99.90
52435;DHT22;38354;52.892;6.148;2023-09-30T07:21:52;12.80;99.90
52435;DHT22;38354;52.892;6.148;2023-09-30T07:24:17;12.90;99.90
52435;DHT22;38354;52.892;6.148;2023-09-30T07:26:43;12.90;99.90
52435;DHT22;38354;52.892;6.148;2023-09-30T07:29:09;13.00;99.90
52435;DHT22;38354;52.892;6.148;2023-09-30T07:31:37;13.00;99.90
52435;DHT22;38354;52.892;6.148;2023-09-30T07:34:03;13.10;99.90
52435;DHT22;38354;52.892;6.148;2023-09-30T07:36:28;13.20;99.90
52435;DHT22;38354;52.892;6.148;2023-09-30T07:38:54;13.20;99.90
52435;DHT22;38354;52.892;6.148;2023-09-30T07:41:19;13.30;99.90
52435;DHT22;38354;52.892;6.148;2023-09-30T07:43:45;13.30;99.90
52435;DHT22;38354;52.892;6.148;2023-09-30T07:46:11;13.40;99.90
52435;DHT22;38354;52.892;6.148;2023-09-30T07:48:36;13.50;99.90
52435;DHT22;38354;52.892;6.148;2023-09-30T07:51:02;13.50;99.90
52435;DHT22;38354;52.892;6.148;2023-09-30T07:53:27;13.60;99.90
52435;DHT22;38354;52.892;6.148;2023-09-30T07:55:53;13.70;99.90
52435;DHT22;38354;52.892;6.148;2023-09-30T07:58:19;13.70;99.90
52435;DHT22;38354;52.892;6.148;2023-09-30T08:00:45;13.80;99.90
52435;DHT22;38354;52.892;6.148;2023-09-30T08:03:11;13.90;99.90
52435;DHT22;38354;52.892;6.148;2023-09-30T08:05:37;13.90;99.90
52435;DHT22;38354;52.892;6.148;2023-09-30T08:08:03;14.00;99.90
52435;DHT22;38354;52.892;6.148;2023-09-30T08:10:29;14.00;99.90
52435;DHT22;38354;52.892;6.148;2023-09-30T08:12:57;14.10;99.90
52435;DHT22;38354;52.892;6.148;2023-09-30T08:15:24;14.10;99.90
52435;DHT22;38354;52.892;6.148;2023-09-30T08:17:49;14.20;99.90
52435;DHT22;38354;52.892;6.148;2023-09-30T08:20:15;14.30;99.90
52435;DHT22;38354;52.892;6.148;2023-09-30T08:22:41;14.40;99.90
52435;DHT22;38354;52.892;6.148;2023-09-30T08:25:06;14.40;99.90
52435;DHT22;38354;52.892;6.148;2023-09-30T08:27:32;14.50;99.90
52435;DHT22;38354;52.892;6.148;2023-09-30T08:29:58;14.50;99.90
52435;DHT22;38354;52.892;6.148;2023-09-30T08:32:23;14.60;99.90
52435;DHT22;38354;52.892;6.148;2023-09-30T08:34:49;14.70;99.90
52435;DHT22;38354;52.892;6.148;2023-09-30T08:37:14;14.70;99.90
52435;DHT22;38354;52.892;6.148;2023-09-30T08:39:40;14.90;99.90
52435;DHT22;38354;52.892;6.148;2023-09-30T08:42:09;14.90;99.90
52435;DHT22;38354;52.892;6.148;2023-09-30T08:44:39;15.00;99.90
52435;DHT22;38354;52.892;6.148;2023-09-30T08:47:07;15.10;99.90
52435;DHT22;38354;52.892;6.148;2023-09-30T08:49:37;15.20;99.90
52435;DHT22;38354;52.892;6.148;2023-09-30T08:52:05;15.30;99.90
52435;DHT22;38354;52.892;6.148;2023-09-30T08:54:31;15.50;99.90
52435;DHT22;38354;52.892;6.148;2023-09-30T08:56:57;15.80;99.90
52435;DHT22;38354;52.892;6.148;2023-09-30T08:59:23;16.00;99.90
52435;DHT22;38354;52.892;6.148;2023-09-30T09:01:49;16.10;99.90
52435;DHT22;38354;52.892;6.148;2023-09-30T09:04:15;16.10;99.90
52435;DHT22;38354;52.892;6.148;2023-09-30T09:06:41;16.10;99.90
52435;DHT22;38354;52.892;6.148;2023-09-30T09:09:16;16.20;99.90
52435;DHT22;38354;52.892;6.148;2023-09-30T09:14:44;16.40;99.90
52435;DHT22;38354;52.892;6.148;2023-09-30T09:17:11;16.50;99.90
52435;DHT22;38354;52.892;6.148;2023-09-30T09:19:37;16.60;99.90
52435;DHT22;38354;52.892;6.148;2023-09-30T09:22:03;16.70;99.90
52435;DHT22;38354;52.892;6.148;2023-09-30T09:24:37;16.80;99.90
52435;DHT22;38354;52.892;6.148;2023-09-30T09:27:11;16.90;99.90
52435;DHT22;38354;52.892;6.148;2023-09-30T09:29:40;16.90;99.90
52435;DHT22;38354;52.892;6.148;2023-09-30T09:32:15;17.00;99.90
52435;DHT22;38354;52.892;6.148;2023-09-30T09:34:43;17.10;99.90
52435;DHT22;38354;52.892;6.148;2023-09-30T09:37:16;17.20;99.90
52435;DHT22;38354;52.892;6.148;2023-09-30T09:39:55;17.20;99.90
52435;DHT22;38354;52.892;6.148;2023-09-30T09:42:32;17.40;99.90
52435;DHT22;38354;52.892;6.148;2023-09-30T09:45:00;17.50;99.90
52435;DHT22;38354;52.892;6.148;2023-09-30T09:47:26;17.50;99.90
52435;DHT22;38354;52.892;6.148;2023-09-30T09:49:52;17.60;99.90
52435;DHT22;38354;52.892;6.148;2023-09-30T09:52:19;17.60;99.90
52435;DHT22;38354;52.892;6.148;2023-09-30T09:54:45;17.70;99.90
52435;DHT22;38354;52.892;6.148;2023-09-30T09:57:12;17.70;99.90
52435;DHT22;38354;52.892;6.148;2023-09-30T09:59:42;17.70;99.90
52435;DHT22;38354;52.892;6.148;2023-09-30T10:02:13;17.70;99.90
52435;DHT22;38354;52.892;6.148;2023-09-30T10:04:44;17.70;99.90
52435;DHT22;38354;52.892;6.148;2023-09-30T10:07:22;17.70;99.90
52435;DHT22;38354;52.892;6.148;2023-09-30T10:09:51;17.70;99.90
52435;DHT22;38354;52.892;6.148;2023-09-30T10:12:18;17.60;99.90
52435;DHT22;38354;52.892;6.148;2023-09-30T10:14:44;17.60;99.90
52435;DHT22;38354;52.892;6.148;2023-09-30T10:17:11;17.60;99.90
52435;DHT22;38354;52.892;6.148;2023-09-30T10:20:03;17.70;99.90
52435;DHT22;38354;52.892;6.148;2023-09-30T10:22:30;17.90;99.90
52435;DHT22;38354;52.892;6.148;2023-09-30T10:24:57;18.00;99.90
52435;DHT22;38354;52.892;6.148;2023-09-30T10:40:47;18.90;99.90
52435;DHT22;38354;52.892;6.148;2023-09-30T10:43:38;19.00;99.90
52435;DHT22;38354;52.892;6.148;2023-09-30T10:48:49;18.70;99.90
52435;DHT22;38354;52.892;6.148;2023-09-30T10:51:18;18.50;99.90
52435;DHT22;38354;52.892;6.148;2023-09-30T10:53:51;18.50;99.90
52435;DHT22;38354;52.892;6.148;2023-09-30T10:56:18;18.70;99.90
52435;DHT22;38354;52.892;6.148;2023-09-30T10:58:49;18.80;99.90
52435;DHT22;38354;52.892;6.148;2023-09-30T11:01:20;19.00;99.90
52435;DHT22;38354;52.892;6.148;2023-09-30T11:03:47;19.10;99.90
52435;DHT22;38354;52.892;6.148;2023-09-30T11:06:19;19.20;99.90
52435;DHT22;38354;52.892;6.148;2023-09-30T11:09:04;19.30;99.90
52435;DHT22;38354;52.892;6.148;2023-09-30T11:11:38;19.40;99.90
52435;DHT22;38354;52.892;6.148;2023-09-30T11:14:27;19.40;99.90
52435;DHT22;38354;52.892;6.148;2023-09-30T11:16:55;19.50;99.90
52435;DHT22;38354;52.892;6.148;2023-09-30T11:19:22;19.50;99.90
52435;DHT22;38354;52.892;6.148;2023-09-30T11:21:57;19.40;99.90
52435;DHT22;38354;52.892;6.148;2023-09-30T11:24:24;19.40;99.90
52435;DHT22;38354;52.892;6.148;2023-09-30T11:26:54;19.40;99.90
52435;DHT22;38354;52.892;6.148;2023-09-30T11:29:21;19.30;99.90
52435;DHT22;38354;52.892;6.148;2023-09-30T11:31:48;19.20;99.90
52435;DHT22;38354;52.892;6.148;2023-09-30T11:34:15;19.20;99.90
52435;DHT22;38354;52.892;6.148;2023-09-30T11:36:48;19.40;99.90
52435;DHT22;38354;52.892;6.148;2023-09-30T11:39:25;19.50;99.90
52435;DHT22;38354;52.892;6.148;2023-09-30T11:41:51;19.60;99.90
52435;DHT22;38354;52.892;6.148;2023-09-30T11:44:18;19.80;99.90
52435;DHT22;38354;52.892;6.148;2023-09-30T11:46:50;19.80;99.90
52435;DHT22;38354;52.892;6.148;2023-09-30T11:49:44;19.80;99.90
52435;DHT22;38354;52.892;6.148;2023-09-30T11:52:15;19.70;99.90
52435;DHT22;38354;52.892;6.148;2023-09-30T11:54:42;19.70;99.90
52435;DHT22;38354;52.892;6.148;2023-09-30T11:57:10;19.50;99.90
52435;DHT22;38354;52.892;6.148;2023-09-30T11:59:37;19.40;99.90
52435;DHT22;38354;52.892;6.148;2023-09-30T12:02:03;19.40;99.90
52435;DHT22;38354;52.892;6.148;2023-09-30T12:04:31;19.50;99.90
52435;DHT22;38354;52.892;6.148;2023-09-30T12:06:57;19.50;99.90
52435;DHT22;38354;52.892;6.148;2023-09-30T12:09:23;19.70;99.90
52435;DHT22;38354;52.892;6.148;2023-09-30T12:11:51;19.80;99.90
52435;DHT22;38354;52.892;6.148;2023-09-30T12:14:17;19.90;99.90
52435;DHT22;38354;52.892;6.148;2023-09-30T12:16:43;19.90;99.90
52435;DHT22;38354;52.892;6.148;2023-09-30T12:19:19;20.00;99.90
52435;DHT22;38354;52.892;6.148;2023-09-30T12:21:46;20.00;99.90
52435;DHT22;38354;52.892;6.148;2023-09-30T12:24:17;20.10;99.90
52435;DHT22;38354;52.892;6.148;2023-09-30T12:26:45;20.10;99.90
52435;DHT22;38354;52.892;6.148;2023-09-30T12:29:17;20.10;99.90
52435;DHT22;38354;52.892;6.148;2023-09-30T12:31:47;20.00;99.90
52435;DHT22;38354;52.892;6.148;2023-09-30T12:34:13;20.00;99.90
52435;DHT22;38354;52.892;6.148;2023-09-30T12:36:39;20.00;99.90
52435;DHT22;38354;52.892;6.148;2023-09-30T12:39:05;20.00;99.90
52435;DHT22;38354;52.892;6.148;2023-09-30T12:41:39;19.90;99.90
52435;DHT22;38354;52.892;6.148;2023-09-30T12:44:06;19.90;99.90
52435;DHT22;38354;52.892;6.148;2023-09-30T12:46:32;19.90;99.90
52435;DHT22;38354;52.892;6.148;2023-09-30T12:49:01;19.90;99.90
52435;DHT22;38354;52.892;6.148;2023-09-30T12:51:28;19.90;99.90
52435;DHT22;38354;52.892;6.148;2023-09-30T12:53:53;19.80;99.90
52435;DHT22;38354;52.892;6.148;2023-09-30T12:56:19;19.70;99.90
52435;DHT22;38354;52.892;6.148;2023-09-30T12:58:44;19.60;99.90
52435;DHT22;38354;52.892;6.148;2023-09-30T13:01:10;19.60;99.90
52435;DHT22;38354;52.892;6.148;2023-09-30T13:03:37;19.60;99.90
52435;DHT22;38354;52.892;6.148;2023-09-30T13:06:02;19.60;99.90
52435;DHT22;38354;52.892;6.148;2023-09-30T13:08:29;19.60;99.90
52435;DHT22;38354;52.892;6.148;2023-09-30T13:11:00;19.40;99.90
52435;DHT22;38354;52.892;6.148;2023-09-30T13:13:31;19.40;99.90
52435;DHT22;38354;52.892;6.148;2023-09-30T13:15:59;19.40;99.90
52435;DHT22;38354;52.892;6.148;2023-09-30T13:18:25;19.30;99.90
52435;DHT22;38354;52.892;6.148;2023-09-30T13:20:51;19.30;99.90
52435;DHT22;38354;52.892;6.148;2023-09-30T13:23:18;19.30;99.90
52435;DHT22;38354;52.892;6.148;2023-09-30T13:25:44;19.30;99.90
52435;DHT22;38354;52.892;6.148;2023-09-30T13:28:10;19.30;99.90
52435;DHT22;38354;52.892;6.148;2023-09-30T13:30:36;19.30;99.90
52435;DHT22;38354;52.892;6.148;2023-09-30T13:33:02;19.40;99.90
52435;DHT22;38354;52.892;6.148;2023-09-30T13:35:27;19.50;99.90
52435;DHT22;38354;52.892;6.148;2023-09-30T13:37:53;19.70;99.90
52435;DHT22;38354;52.892;6.148;2023-09-30T13:40:18;19.90;99.90
52435;DHT22;38354;52.892;6.148;2023-09-30T13:42:45;19.90;99.90
52435;DHT22;38354;52.892;6.148;2023-09-30T13:45:11;19.90;99.90
52435;DHT22;38354;52.892;6.148;2023-09-30T13:47:37;20.00;99.90
52435;DHT22;38354;52.892;6.148;2023-09-30T13:50:03;20.10;99.90
52435;DHT22;38354;52.892;6.148;2023-09-30T13:52:35;20.10;99.90
52435;DHT22;38354;52.892;6.148;2023-09-30T13:55:01;20.10;99.90
52435;DHT22;38354;52.892;6.148;2023-09-30T13:57:27;20.00;99.90
52435;DHT22;38354;52.892;6.148;2023-09-30T13:59:53;20.00;99.90
52435;DHT22;38354;52.892;6.148;2023-09-30T14:02:19;19.90;99.90
52435;DHT22;38354;52.892;6.148;2023-09-30T14:04:45;19.70;99.90
52435;DHT22;38354;52.892;6.148;2023-09-30T14:07:10;19.60;99.90
52435;DHT22;38354;52.892;6.148;2023-09-30T14:09:36;19.60;99.90
52435;DHT22;38354;52.892;6.148;2023-09-30T14:12:03;19.50;99.90
52435;DHT22;38354;52.892;6.148;2023-09-30T14:14:33;19.40;99.90
52435;DHT22;38354;52.892;6.148;2023-09-30T14:17:02;19.30;99.90
52435;DHT22;38354;52.892;6.148;2023-09-30T14:19:37;19.30;99.90
52435;DHT22;38354;52.892;6.148;2023-09-30T14:22:03;19.20;99.90
52435;DHT22;38354;52.892;6.148;2023-09-30T14:24:34;19.20;99.90
52435;DHT22;38354;52.892;6.148;2023-09-30T14:27:00;19.20;99.90
52435;DHT22;38354;52.892;6.148;2023-09-30T14:29:26;19.20;99.90
52435;DHT22;38354;52.892;6.148;2023-09-30T14:31:51;19.10;99.90
52435;DHT22;38354;52.892;6.148;2023-09-30T14:34:17;19.10;99.90
52435;DHT22;38354;52.892;6.148;2023-09-30T14:36:43;19.10;99.90
52435;DHT22;38354;52.892;6.148;2023-09-30T14:39:10;19.00;99.90
52435;DHT22;38354;52.892;6.148;2023-09-30T14:41:35;18.90;99.90
52435;DHT22;38354;52.892;6.148;2023-09-30T14:44:01;18.80;99.90
52435;DHT22;38354;52.892;6.148;2023-09-30T14:46:29;18.80;99.90
52435;DHT22;38354;52.892;6.148;2023-09-30T14:48:55;18.70;99.90
52435;DHT22;38354;52.892;6.148;2023-09-30T14:51:23;18.70;99.90
52435;DHT22;38354;52.892;6.148;2023-09-30T14:53:49;18.70;99.90
52435;DHT22;38354;52.892;6.148;2023-09-30T14:56:18;18.70;99.90
52435;DHT22;38354;52.892;6.148;2023-09-30T14:58:44;18.70;99.90
52435;DHT22;38354;52.892;6.148;2023-09-30T15:01:10;18.60;99.90
52435;DHT22;38354;52.892;6.148;2023-09-30T15:03:36;18.60;99.90
52435;DHT22;38354;52.892;6.148;2023-09-30T15:06:06;18.70;99.90
52435;DHT22;38354;52.892;6.148;2023-09-30T15:08:32;18.70;99.90
52435;DHT22;38354;52.892;6.148;2023-09-30T15:10:59;18.70;99.90
52435;DHT22;38354;52.892;6.148;2023-09-30T15:13:25;18.80;99.90
52435;DHT22;38354;52.892;6.148;2023-09-30T15:15:51;18.80;99.90
52435;DHT22;38354;52.892;6.148;2023-09-30T15:18:17;18.80;99.90
52435;DHT22;38354;52.892;6.148;2023-09-30T15:20:42;18.90;99.90
52435;DHT22;38354;52.892;6.148;2023-09-30T15:23:12;18.90;99.90
52435;DHT22;38354;52.892;6.148;2023-09-30T15:25:42;19.00;99.90
52435;DHT22;38354;52.892;6.148;2023-09-30T15:28:09;19.00;99.90
52435;DHT22;38354;52.892;6.148;2023-09-30T15:30:34;19.00;99.90
52435;DHT22;38354;52.892;6.148;2023-09-30T15:33:00;18.90;99.90
52435;DHT22;38354;52.892;6.148;2023-09-30T15:35:28;18.90;99.90
52435;DHT22;38354;52.892;6.148;2023-09-30T15:37:53;18.80;99.90
52435;DHT22;38354;52.892;6.148;2023-09-30T15:40:19;18.70;99.90
52435;DHT22;38354;52.892;6.148;2023-09-30T15:42:45;18.60;99.90
52435;DHT22;38354;52.892;6.148;2023-09-30T15:45:12;18.60;99.90
52435;DHT22;38354;52.892;6.148;2023-09-30T15:47:38;18.50;99.90
52435;DHT22;38354;52.892;6.148;2023-09-30T15:50:05;18.50;99.90
52435;DHT22;38354;52.892;6.148;2023-09-30T15:52:31;18.40;99.90
52435;DHT22;38354;52.892;6.148;2023-09-30T15:54:57;18.40;99.90
52435;DHT22;38354;52.892;6.148;2023-09-30T15:57:23;18.40;99.90
52435;DHT22;38354;52.892;6.148;2023-09-30T15:59:49;18.40;99.90
52435;DHT22;38354;52.892;6.148;2023-09-30T16:02:15;18.30;99.90
52435;DHT22;38354;52.892;6.148;2023-09-30T16:04:41;18.30;99.90
52435;DHT22;38354;52.892;6.148;2023-09-30T16:07:07;18.30;99.90
52435;DHT22;38354;52.892;6.148;2023-09-30T16:09:34;18.30;99.90
52435;DHT22;38354;52.892;6.148;2023-09-30T16:12:03;18.30;99.90
52435;DHT22;38354;52.892;6.148;2023-09-30T16:14:30;18.20;99.90
52435;DHT22;38354;52.892;6.148;2023-09-30T16:16:55;18.20;99.90
52435;DHT22;38354;52.892;6.148;2023-09-30T16:19:22;18.10;99.90
52435;DHT22;38354;52.892;6.148;2023-09-30T16:21:48;18.10;99.90
52435;DHT22;38354;52.892;6.148;2023-09-30T16:24:13;18.10;99.90
52435;DHT22;38354;52.892;6.148;2023-09-30T16:26:40;18.10;99.90
52435;DHT22;38354;52.892;6.148;2023-09-30T16:29:06;18.00;99.90
52435;DHT22;38354;52.892;6.148;2023-09-30T16:31:32;18.00;99.90
52435;DHT22;38354;52.892;6.148;2023-09-30T16:33:58;18.00;99.90
52435;DHT22;38354;52.892;6.148;2023-09-30T16:36:24;18.00;99.90
52435;DHT22;38354;52.892;6.148;2023-09-30T16:38:49;17.90;99.90
52435;DHT22;38354;52.892;6.148;2023-09-30T16:41:15;17.90;99.90
52435;DHT22;38354;52.892;6.148;2023-09-30T16:43:41;17.90;99.90
52435;DHT22;38354;52.892;6.148;2023-09-30T16:46:06;17.90;99.90
52435;DHT22;38354;52.892;6.148;2023-09-30T16:48:32;17.90;99.90
52435;DHT22;38354;52.892;6.148;2023-09-30T16:50:58;17.80;99.90
52435;DHT22;38354;52.892;6.148;2023-09-30T16:53:24;17.80;99.90
52435;DHT22;38354;52.892;6.148;2023-09-30T16:55:50;17.80;99.90
52435;DHT22;38354;52.892;6.148;2023-09-30T16:58:17;17.80;99.90
52435;DHT22;38354;52.892;6.148;2023-09-30T17:00:43;17.70;99.90
52435;DHT22;38354;52.892;6.148;2023-09-30T17:03:09;17.60;99.90
52435;DHT22;38354;52.892;6.148;2023-09-30T17:05:37;17.60;99.90
52435;DHT22;38354;52.892;6.148;2023-09-30T17:08:03;17.50;99.90
52435;DHT22;38354;52.892;6.148;2023-09-30T17:10:29;17.40;99.90
52435;DHT22;38354;52.892;6.148;2023-09-30T17:12:55;17.40;99.90
52435;DHT22;38354;52.892;6.148;2023-09-30T17:15:21;17.30;99.90
52435;DHT22;38354;52.892;6.148;2023-09-30T17:17:47;17.30;99.90
52435;DHT22;38354;52.892;6.148;2023-09-30T17:20:12;17.30;99.90
52435;DHT22;38354;52.892;6.148;2023-09-30T17:22:39;17.30;99.90
52435;DHT22;38354;52.892;6.148;2023-09-30T17:25:05;17.20;99.90
52435;DHT22;38354;52.892;6.148;2023-09-30T17:27:31;17.20;99.90
52435;DHT22;38354;52.892;6.148;2023-09-30T17:29:56;17.20;99.90
52435;DHT22;38354;52.892;6.148;2023-09-30T17:32:22;17.10;99.90
52435;DHT22;38354;52.892;6.148;2023-09-30T17:34:49;17.10;99.90
52435;DHT22;38354;52.892;6.148;2023-09-30T17:37:15;17.10;99.90
52435;DHT22;38354;52.892;6.148;2023-09-30T17:39:43;17.10;99.90
52435;DHT22;38354;52.892;6.148;2023-09-30T17:42:13;17.10;99.90
52435;DHT22;38354;52.892;6.148;2023-09-30T17:44:40;17.00;99.90
52435;DHT22;38354;52.892;6.148;2023-09-30T17:47:06;17.00;99.90
52435;DHT22;38354;52.892;6.148;2023-09-30T17:49:31;17.00;99.90
52435;DHT22;38354;52.892;6.148;2023-09-30T17:51:57;17.00;99.90
52435;DHT22;38354;52.892;6.148;2023-09-30T17:54:24;16.90;99.90
52435;DHT22;38354;52.892;6.148;2023-09-30T17:56:49;16.90;99.90
52435;DHT22;38354;52.892;6.148;2023-09-30T17:59:15;16.90;99.90
52435;DHT22;38354;52.892;6.148;2023-09-30T18:01:41;16.90;99.90
52435;DHT22;38354;52.892;6.148;2023-09-30T18:04:09;16.90;99.90
52435;DHT22;38354;52.892;6.148;2023-09-30T18:06:35;16.80;99.90
52435;DHT22;38354;52.892;6.148;2023-09-30T18:09:02;16.80;99.90
52435;DHT22;38354;52.892;6.148;2023-09-30T18:11:29;16.80;99.90
52435;DHT22;38354;52.892;6.148;2023-09-30T18:13:54;16.80;99.90
52435;DHT22;38354;52.892;6.148;2023-09-30T18:16:20;16.80;99.90
52435;DHT22;38354;52.892;6.148;2023-09-30T18:18:46;16.80;99.90
52435;DHT22;38354;52.892;6.148;2023-09-30T18:21:12;16.80;99.90
52435;DHT22;38354;52.892;6.148;2023-09-30T18:23:38;16.80;99.90
52435;DHT22;38354;52.892;6.148;2023-09-30T18:26:04;16.70;99.90
52435;DHT22;38354;52.892;6.148;2023-09-30T18:28:30;16.70;99.90
52435;DHT22;38354;52.892;6.148;2023-09-30T18:30:57;16.70;99.90
52435;DHT22;38354;52.892;6.148;2023-09-30T18:33:24;16.70;99.90
52435;DHT22;38354;52.892;6.148;2023-09-30T18:35:49;16.70;99.90
52435;DHT22;38354;52.892;6.148;2023-09-30T18:38:15;16.60;99.90
52435;DHT22;38354;52.892;6.148;2023-09-30T18:40:41;16.60;99.90
52435;DHT22;38354;52.892;6.148;2023-09-30T18:43:09;16.60;99.90
52435;DHT22;38354;52.892;6.148;2023-09-30T18:45:48;16.60;99.90
52435;DHT22;38354;52.892;6.148;2023-09-30T18:48:14;16.60;99.90
52435;DHT22;38354;52.892;6.148;2023-09-30T18:50:44;16.60;99.90
52435;DHT22;38354;52.892;6.148;2023-09-30T18:53:11;16.60;99.90
52435;DHT22;38354;52.892;6.148;2023-09-30T18:55:42;16.50;99.90
52435;DHT22;38354;52.892;6.148;2023-09-30T18:58:08;16.50;99.90
52435;DHT22;38354;52.892;6.148;2023-09-30T19:00:37;16.50;99.90
52435;DHT22;38354;52.892;6.148;2023-09-30T19:03:04;16.50;99.90
52435;DHT22;38354;52.892;6.148;2023-09-30T19:05:37;16.50;99.90
52435;DHT22;38354;52.892;6.148;2023-09-30T19:08:04;16.50;99.90
52435;DHT22;38354;52.892;6.148;2023-09-30T19:10:31;16.40;99.90
52435;DHT22;38354;52.892;6.148;2023-09-30T19:12:57;16.40;99.90
52435;DHT22;38354;52.892;6.148;2023-09-30T19:15:23;16.40;99.90
52435;DHT22;38354;52.892;6.148;2023-09-30T19:17:51;16.40;99.90
52435;DHT22;38354;52.892;6.148;2023-09-30T19:20:17;16.40;99.90
52435;DHT22;38354;52.892;6.148;2023-09-30T19:22:47;16.30;99.90
52435;DHT22;38354;52.892;6.148;2023-09-30T19:25:13;16.30;99.90
52435;DHT22;38354;52.892;6.148;2023-09-30T19:27:39;16.30;99.90
52435;DHT22;38354;52.892;6.148;2023-09-30T19:30:06;16.40;99.90
52435;DHT22;38354;52.892;6.148;2023-09-30T19:32:32;16.30;99.90
52435;DHT22;38354;52.892;6.148;2023-09-30T19:35:02;16.30;99.90
52435;DHT22;38354;52.892;6.148;2023-09-30T19:37:28;16.30;99.90
52435;DHT22;38354;52.892;6.148;2023-09-30T19:39:54;16.20;99.90
52435;DHT22;38354;52.892;6.148;2023-09-30T19:42:19;16.20;99.90
52435;DHT22;38354;52.892;6.148;2023-09-30T19:44:48;16.30;99.90
52435;DHT22;38354;52.892;6.148;2023-09-30T19:47:17;16.20;99.90
52435;DHT22;38354;52.892;6.148;2023-09-30T19:49:44;16.20;99.90